Time;durP1;ratioP1;P1;durP2;ratioP2;P2;SDS_P1;SDS_P2;PMS_P1;PMS_P2;Temp;Humidity;BMP_temperature;BMP_pressure;BME280_temperature;BME280_humidity;BME280_pressure;Samples;Min_cycle;Max_cycle;Signal;HPM_P1;HPM_P2
2019/06/02 00:01:36;;;;;;;11.1;10;;;;;;;13.73;94.16211;964.1241;;;;
2019/06/02 00:04:01;;;;;;;11.1;9.7;;;;;;;13.71;94.26563;964.1135;;;;
2019/06/02 00:06:26;;;;;;;13.3;10.2;;;;;;;13.71;94.35645;964.1433;;;;
2019/06/02 00:08:57;;;;;;;14.3;10.6;;;;;;;13.72;94.36035;964.0775;;;;
2019/06/02 00:11:23;;;;;;;10.9;9.8;;;;;;;13.72;94.39453;964.0603;;;;
2019/06/02 00:13:48;;;;;;;12.4;10.2;;;;;;;13.73;94.52246;964.0428;;;;
2019/06/02 00:16:13;;;;;;;12.2;10.4;;;;;;;13.69;94.34082;964.0856;;;;
2019/06/02 00:18:39;;;;;;;10.9;9.8;;;;;;;13.66;95.2998;964.0327;;;;
2019/06/02 00:21:06;;;;;;;11;10;;;;;;;13.59;95.52832;964.0621;;;;
2019/06/02 00:23:48;;;;;;;14.4;10.6;;;;;;;13.54;95.43457;964.0381;;;;
2019/06/02 00:26:13;;;;;;;11.8;9.8;;;;;;;13.59;94.59668;964.0667;;;;
2019/06/02 00:28:38;;;;;;;11;9.8;;;;;;;13.55;94.64648;964.0277;;;;
2019/06/02 00:31:03;;;;;;;13;10.2;;;;;;;13.5;94.86914;964.0288;;;;
2019/06/02 00:33:34;;;;;;;12.3;10.5;;;;;;;13.5;94.85547;963.9908;;;;
2019/06/02 00:35:59;;;;;;;11.6;10.4;;;;;;;13.48;94.86328;964.0015;;;;
2019/06/02 00:38:25;;;;;;;13.4;11.3;;;;;;;13.46;94.86133;964.0033;;;;
2019/06/02 00:40:49;;;;;;;12.6;10.9;;;;;;;13.43;94.9834;964.0193;;;;
2019/06/02 00:43:22;;;;;;;11.6;10.3;;;;;;;13.39;95.19238;963.986;;;;
2019/06/02 00:45:53;;;;;;;13.4;10.6;;;;;;;13.41;94.99902;964.0653;;;;
2019/06/02 00:48:45;;;;;;;13.3;10.8;;;;;;;13.37;95.42285;963.9403;;;;
2019/06/02 00:51:10;;;;;;;15.1;11.2;;;;;;;13.35;95.66113;963.9347;;;;
2019/06/02 00:53:37;;;;;;;12.3;11.1;;;;;;;13.26;95.91992;963.8796;;;;
2019/06/02 00:56:02;;;;;;;13.7;11.3;;;;;;;13.25;95.34863;963.8854;;;;
2019/06/02 00:58:38;;;;;;;13.4;11.9;;;;;;;13.25;95.2002;963.8162;;;;
2019/06/02 01:01:03;;;;;;;12.5;11.2;;;;;;;13.23;95.79785;963.772;;;;
2019/06/02 01:03:28;;;;;;;13.1;11.2;;;;;;;13.18;95.55371;963.7511;;;;
2019/06/02 01:05:57;;;;;;;12;10.8;;;;;;;13.15;95.57129;963.733;;;;
2019/06/02 01:08:27;;;;;;;12.1;10.8;;;;;;;13.14;95.53223;963.8244;;;;
2019/06/02 01:10:55;;;;;;;12;10.8;;;;;;;13.13;95.78613;963.7481;;;;
2019/06/02 01:13:20;;;;;;;13.2;11.8;;;;;;;13.14;97.01855;963.7899;;;;
2019/06/02 01:15:45;;;;;;;12.6;10.9;;;;;;;13.09;95.4043;963.7443;;;;
2019/06/02 01:18:11;;;;;;;13.6;11.4;;;;;;;13.04;95.76855;963.7364;;;;
2019/06/02 01:20:35;;;;;;;12.6;11.3;;;;;;;13.02;95.86621;963.7263;;;;
2019/06/02 01:23:08;;;;;;;12.5;11.2;;;;;;;12.97;95.83398;963.7224;;;;
2019/06/02 01:25:33;;;;;;;12.8;10.6;;;;;;;12.96;95.54199;963.6894;;;;
2019/06/02 01:28:04;;;;;;;12.2;10.8;;;;;;;12.97;95.55273;963.6799;;;;
2019/06/02 01:30:52;;;;;;;13.5;11.3;;;;;;;12.95;95.88379;963.7039;;;;
2019/06/02 01:33:26;;;;;;;13.4;12;;;;;;;12.9;96.58398;963.6061;;;;
2019/06/02 01:35:52;;;;;;;12.7;11.5;;;;;;;12.87;96.00879;963.6816;;;;
2019/06/02 01:38:22;;;;;;;12.3;11.1;;;;;;;12.86;95.99316;963.6408;;;;
2019/06/02 01:40:47;;;;;;;12.1;10.8;;;;;;;12.89;96.42871;963.6841;;;;
2019/06/02 01:43:13;;;;;;;13;11.7;;;;;;;12.85;97.02441;963.6545;;;;
2019/06/02 01:45:49;;;;;;;13.8;12;;;;;;;12.77;97.46973;963.6588;;;;
2019/06/02 01:48:14;;;;;;;12.7;11.4;;;;;;;12.75;96.79297;963.6611;;;;
2019/06/02 01:50:49;;;;;;;14.7;12.9;;;;;;;12.71;97.32813;963.7039;;;;
2019/06/02 01:53:17;;;;;;;14.1;12.7;;;;;;;12.65;98.07031;963.7183;;;;
2019/06/02 01:55:42;;;;;;;13.8;12.4;;;;;;;12.67;98.90723;963.6616;;;;
2019/06/02 01:58:07;;;;;;;15.6;14;;;;;;;12.63;98.69238;963.6905;;;;
2019/06/02 02:00:32;;;;;;;13.8;12.4;;;;;;;12.72;97.39063;963.6854;;;;
2019/06/02 02:03:00;;;;;;;14.4;12.9;;;;;;;12.74;96.85938;963.6234;;;;
2019/06/02 02:05:25;;;;;;;14.6;12.5;;;;;;;12.66;97.2832;963.6279;;;;
2019/06/02 02:07:50;;;;;;;14.5;13;;;;;;;12.64;97.48633;963.5275;;;;
2019/06/02 02:10:16;;;;;;;14.2;12.7;;;;;;;12.59;97.18652;963.5324;;;;
2019/06/02 02:12:43;;;;;;;15;13.5;;;;;;;12.54;97.25781;963.5551;;;;
2019/06/02 02:15:08;;;;;;;15.1;13.5;;;;;;;12.5;97.37305;963.4781;;;;
2019/06/02 02:17:34;;;;;;;15.2;13.7;;;;;;;12.48;97.50781;963.5061;;;;
2019/06/02 02:20:23;;;;;;;14.9;13.5;;;;;;;12.49;97.57031;963.5095;;;;
2019/06/02 02:23:04;;;;;;;15.1;13.7;;;;;;;12.44;97.88477;963.476;;;;
2019/06/02 02:25:31;;;;;;;17;14;;;;;;;12.42;97.70508;963.4871;;;;
2019/06/02 02:28:17;;;;;;;16.3;14.8;;;;;;;12.37;97.8457;963.4743;;;;
2019/06/02 02:30:51;;;;;;;15.6;13.7;;;;;;;12.43;97.41504;963.4388;;;;
2019/06/02 02:33:33;;;;;;;14.8;13.3;;;;;;;12.38;97.2334;963.4478;;;;
2019/06/02 02:35:59;;;;;;;14.3;12.9;;;;;;;12.27;97.49707;963.3486;;;;
2019/06/02 02:38:24;;;;;;;16.1;14.6;;;;;;;12.23;97.85938;963.3575;;;;
2019/06/02 02:40:50;;;;;;;18.6;16.7;;;;;;;12.21;98.93066;963.3205;;;;
2019/06/02 02:43:15;;;;;;;20.2;18.3;;;;;;;12.21;99.64844;963.3638;;;;
2019/06/02 02:45:41;;;;;;;22.5;20.3;;;;;;;12.19;100;963.2925;;;;
2019/06/02 02:48:27;;;;;;;18.9;17;;;;;;;12.16;100;963.335;;;;
2019/06/02 02:50:52;;;;;;;19.1;17.2;;;;;;;12.12;99.96582;963.3766;;;;
2019/06/02 02:53:27;;;;;;;20.4;18.4;;;;;;;12.07;99.84961;963.4297;;;;
2019/06/02 02:55:52;;;;;;;17.9;16.2;;;;;;;12.03;99.78125;963.4169;;;;
2019/06/02 02:58:17;;;;;;;19.2;17.3;;;;;;;11.98;99.77148;963.4;;;;
2019/06/02 03:00:42;;;;;;;17.1;15.3;;;;;;;11.96;99.68652;963.4194;;;;
2019/06/02 03:03:08;;;;;;;16.3;14.6;;;;;;;11.91;99.46582;963.4467;;;;
2019/06/02 03:05:34;;;;;;;18.7;16.9;;;;;;;11.92;99.89551;963.4154;;;;
2019/06/02 03:07:59;;;;;;;17.4;15.7;;;;;;;11.85;99.95996;963.4225;;;;
2019/06/02 03:10:25;;;;;;;19;17.2;;;;;;;11.84;100;963.4874;;;;
2019/06/02 03:12:50;;;;;;;20;18.1;;;;;;;11.84;100;963.4194;;;;
2019/06/02 03:15:15;;;;;;;18.1;16.3;;;;;;;11.83;100;963.433;;;;
2019/06/02 03:17:40;;;;;;;20.3;18.2;;;;;;;11.82;100;963.4426;;;;
2019/06/02 03:20:14;;;;;;;15.1;13.6;;;;;;;11.82;99.34082;963.3999;;;;
2019/06/02 03:22:40;;;;;;;15;13.6;;;;;;;11.83;98.85645;963.4378;;;;
2019/06/02 03:25:05;;;;;;;15.6;14;;;;;;;11.84;98.69629;963.3513;;;;
2019/06/02 03:27:35;;;;;;;18.1;16.2;;;;;;;11.84;98.93945;963.372;;;;
2019/06/02 03:30:00;;;;;;;16.4;14.8;;;;;;;11.79;99.04297;963.3605;;;;
2019/06/02 03:32:32;;;;;;;15.3;13.8;;;;;;;11.74;98.77637;963.4343;;;;
2019/06/02 03:34:59;;;;;;;15.3;13.7;;;;;;;11.75;98.54004;963.3981;;;;
2019/06/02 03:37:40;;;;;;;15.8;14.3;;;;;;;11.75;98.56055;963.4839;;;;
2019/06/02 03:40:15;;;;;;;14.6;13.2;;;;;;;11.74;98.45215;963.3702;;;;
2019/06/02 03:42:49;;;;;;;15.4;13.8;;;;;;;11.73;98.36035;963.3663;;;;
2019/06/02 03:45:22;;;;;;;15.1;13.6;;;;;;;11.85;97.87695;963.3711;;;;
2019/06/02 03:48:02;;;;;;;14.1;12.7;;;;;;;11.95;97.71387;963.3142;;;;
2019/06/02 03:50:28;;;;;;;14.7;13.3;;;;;;;11.93;97.66602;963.3585;;;;
2019/06/02 03:52:53;;;;;;;14.6;13.1;;;;;;;11.95;97.60938;963.3182;;;;
2019/06/02 03:55:32;;;;;;;15.7;14.2;;;;;;;11.91;97.88867;963.3783;;;;
2019/06/02 03:57:58;;;;;;;15.6;14.2;;;;;;;11.9;97.96777;963.4008;;;;
2019/06/02 04:02:28;;;;;;;16;14.3;;;;;;;11.9;97.95898;963.4384;;;;
2019/06/02 04:04:53;;;;;;;15.7;14;;;;;;;11.95;97.51758;963.4297;;;;
2019/06/02 04:07:18;;;;;;;13.8;12.5;;;;;;;12.05;96.9375;963.4194;;;;
2019/06/02 04:09:43;;;;;;;14.3;13;;;;;;;12.17;96.25879;963.4103;;;;
2019/06/02 04:12:08;;;;;;;14.8;13.3;;;;;;;12.31;95.54883;963.3445;;;;
2019/06/02 04:14:34;;;;;;;13.9;12.5;;;;;;;12.42;94.98145;963.3923;;;;
2019/06/02 04:16:59;;;;;;;13.1;11.9;;;;;;;12.47;94.66895;963.4636;;;;
2019/06/02 04:19:26;;;;;;;13.3;12.1;;;;;;;12.51;95.08203;963.344;;;;
2019/06/02 04:21:51;;;;;;;15.8;14.2;;;;;;;12.47;94.78223;963.4299;;;;
2019/06/02 04:24:16;;;;;;;13.2;11.9;;;;;;;12.45;95.34668;963.4454;;;;
2019/06/02 04:26:44;;;;;;;13.7;12.4;;;;;;;12.66;94.24609;963.4609;;;;
2019/06/02 04:29:25;;;;;;;13.5;12.2;;;;;;;12.77;93.78223;963.4364;;;;
2019/06/02 04:32:00;;;;;;;12.9;11.6;;;;;;;12.8;93.45313;963.454;;;;
2019/06/02 04:34:25;;;;;;;13.1;11.9;;;;;;;12.9;92.98535;963.4312;;;;
2019/06/02 04:37:07;;;;;;;13.7;12.3;;;;;;;12.92;93.09375;963.4246;;;;
2019/06/02 04:39:36;;;;;;;11.8;10.7;;;;;;;13;92.76465;963.4105;;;;
2019/06/02 04:42:02;;;;;;;12.1;10.9;;;;;;;13.11;92.55469;963.3653;;;;
2019/06/02 04:44:27;;;;;;;12.2;11.1;;;;;;;13.26;91.50781;963.3487;;;;
2019/06/02 04:46:59;;;;;;;12.5;11.3;;;;;;;13.43;90.89453;963.3123;;;;
2019/06/02 04:49:24;;;;;;;11.6;10.6;;;;;;;13.5;90.66211;963.3351;;;;
2019/06/02 04:51:49;;;;;;;11.7;10.6;;;;;;;13.61;90.07227;963.3907;;;;
2019/06/02 04:54:14;;;;;;;11.6;10.3;;;;;;;13.74;88.98242;963.4019;;;;
2019/06/02 04:56:40;;;;;;;10.7;9.8;;;;;;;13.92;88.09766;963.3741;;;;
2019/06/02 04:59:06;;;;;;;10.1;9.2;;;;;;;13.98;87.80859;963.4097;;;;
2019/06/02 05:01:30;;;;;;;9.8;8.9;;;;;;;14.05;87.58984;963.4792;;;;
2019/06/02 05:03:56;;;;;;;9.9;8.9;;;;;;;14.16;88.13672;963.5046;;;;
2019/06/02 05:06:21;;;;;;;10.1;9;;;;;;;14.3;86.81348;963.5323;;;;
2019/06/02 05:08:46;;;;;;;9.9;8.9;;;;;;;14.43;85.84961;963.4917;;;;
2019/06/02 05:11:11;;;;;;;8.9;8;;;;;;;14.6;85.50977;963.5025;;;;
2019/06/02 05:13:36;;;;;;;8.7;7.9;;;;;;;14.68;85.70215;963.57;;;;
2019/06/02 05:16:02;;;;;;;9.2;8.2;;;;;;;14.7;85.25098;963.508;;;;
2019/06/02 05:18:28;;;;;;;9.2;8.2;;;;;;;14.87;84.63184;963.4882;;;;
2019/06/02 05:20:52;;;;;;;8.3;7.5;;;;;;;15.03;83.54395;963.4824;;;;
2019/06/02 05:23:17;;;;;;;8;7.2;;;;;;;15.2;82.30469;963.4964;;;;
2019/06/02 05:25:42;;;;;;;7.9;7.1;;;;;;;15.2;82.25879;963.4666;;;;
2019/06/02 05:28:07;;;;;;;7.7;7;;;;;;;15.31;81.71875;963.4537;;;;
2019/06/02 05:30:32;;;;;;;8.2;7.5;;;;;;;15.27;81.29199;963.4408;;;;
2019/06/02 05:32:57;;;;;;;7.7;7;;;;;;;15.38;81.18359;963.3723;;;;
2019/06/02 05:35:23;;;;;;;7.9;7.2;;;;;;;15.47;80.83887;963.4557;;;;
2019/06/02 05:37:53;;;;;;;8;7.3;;;;;;;15.51;80.60156;963.4978;;;;
2019/06/02 05:40:23;;;;;;;7.4;6.8;;;;;;;15.53;81.32813;963.4869;;;;
2019/06/02 05:42:48;;;;;;;8.3;7.5;;;;;;;15.57;81.44043;963.4735;;;;
2019/06/02 05:45:17;;;;;;;7.6;7;;;;;;;15.69;80.43555;963.5287;;;;
2019/06/02 05:47:44;;;;;;;7.5;6.8;;;;;;;15.84;79.57617;963.4972;;;;
2019/06/02 05:50:11;;;;;;;8.2;7.3;;;;;;;15.85;79.49609;963.4578;;;;
2019/06/02 05:52:36;;;;;;;8;7.2;;;;;;;15.93;79.4873;963.4781;;;;
2019/06/02 05:55:04;;;;;;;7.2;6.6;;;;;;;16.1;78.61621;963.4836;;;;
2019/06/02 05:57:31;;;;;;;6.7;6.1;;;;;;;16.2;77.8877;963.4713;;;;
2019/06/02 05:59:56;;;;;;;7.1;6.3;;;;;;;16.22;78.4541;963.4945;;;;
2019/06/02 06:02:21;;;;;;;6.5;5.9;;;;;;;16.3;77.44922;963.4892;;;;
2019/06/02 06:04:48;;;;;;;6.7;6;;;;;;;16.49;77.17871;963.4705;;;;
2019/06/02 06:07:14;;;;;;;6.9;6.2;;;;;;;16.61;76.18359;963.4504;;;;
2019/06/02 06:09:44;;;;;;;6.7;6.1;;;;;;;16.67;76.14648;963.5292;;;;
2019/06/02 06:12:12;;;;;;;6.3;5.7;;;;;;;16.85;76.78613;963.4689;;;;
2019/06/02 06:14:37;;;;;;;7.3;5.6;;;;;;;16.99;75.60352;963.4984;;;;
2019/06/02 06:17:02;;;;;;;5.6;5.1;;;;;;;17.14;75.2666;963.532;;;;
2019/06/02 06:19:28;;;;;;;5.5;5;;;;;;;17.29;74.95313;963.5385;;;;
2019/06/02 06:21:52;;;;;;;5.9;4.9;;;;;;;17.31;74.34668;963.5662;;;;
2019/06/02 06:24:18;;;;;;;5.2;4.7;;;;;;;17.38;73.05762;963.5397;;;;
2019/06/02 06:26:43;;;;;;;5.4;4.9;;;;;;;17.5;73.17188;963.5203;;;;
2019/06/02 06:29:09;;;;;;;5.7;5.2;;;;;;;17.61;71.91113;963.4885;;;;
2019/06/02 06:31:34;;;;;;;5.2;4.7;;;;;;;17.62;71.8291;963.5614;;;;
2019/06/02 06:34:17;;;;;;;4.6;4.2;;;;;;;17.74;71.25293;963.5499;;;;
2019/06/02 06:36:42;;;;;;;5.4;4.1;;;;;;;17.99;70.61133;963.587;;;;
2019/06/02 06:39:07;;;;;;;6.1;4.3;;;;;;;17.98;70.99902;963.5363;;;;
2019/06/02 06:41:32;;;;;;;4.5;4.1;;;;;;;18.08;71.58984;963.5492;;;;
2019/06/02 06:44:03;;;;;;;4.9;4.4;;;;;;;17.99;70.62305;963.5223;;;;
2019/06/02 06:46:33;;;;;;;5.6;4.1;;;;;;;18.32;70.12598;963.5312;;;;
2019/06/02 06:48:58;;;;;;;4.6;4.1;;;;;;;18.5;70.35352;963.503;;;;
2019/06/02 06:51:23;;;;;;;4.1;3.7;;;;;;;18.61;70.60449;963.4203;;;;
2019/06/02 06:53:49;;;;;;;4.7;4.2;;;;;;;18.65;68.61328;963.4841;;;;
2019/06/02 06:56:14;;;;;;;4.4;4;;;;;;;18.78;68.77441;963.4322;;;;
2019/06/02 06:58:44;;;;;;;4.1;3.7;;;;;;;18.91;68.59473;963.4369;;;;
2019/06/02 07:01:25;;;;;;;4.5;3.8;;;;;;;19.15;67.11426;963.4738;;;;
2019/06/02 07:03:51;;;;;;;4.2;3.5;;;;;;;19.29;68.05469;963.4671;;;;
2019/06/02 07:06:30;;;;;;;3.7;3.4;;;;;;;19.34;67.20215;963.4439;;;;
2019/06/02 07:09:09;;;;;;;3.7;3.4;;;;;;;19.46;65.56055;963.4623;;;;
2019/06/02 07:11:37;;;;;;;3.6;3.3;;;;;;;19.53;66.21875;963.4821;;;;
2019/06/02 07:14:02;;;;;;;3.3;3;;;;;;;19.72;64.99609;963.4792;;;;
2019/06/02 07:16:30;;;;;;;3.5;3.2;;;;;;;19.98;64.77637;963.5203;;;;
2019/06/02 07:18:56;;;;;;;3.9;3.4;;;;;;;20.15;62.2666;963.4752;;;;
2019/06/02 07:21:23;;;;;;;3.6;3.3;;;;;;;20.1;63.22656;963.4827;;;;
2019/06/02 07:23:56;;;;;;;5.3;3.3;;;;;;;20.32;62.62012;963.4695;;;;
2019/06/02 07:26:25;;;;;;;3.9;3.3;;;;;;;20.49;62.84375;963.4855;;;;
2019/06/02 07:28:57;;;;;;;3.5;3.2;;;;;;;20.6;61.71484;963.5175;;;;
2019/06/02 07:31:31;;;;;;;3.9;3;;;;;;;20.85;61.5127;963.5259;;;;
2019/06/02 07:33:56;;;;;;;3.6;3.3;;;;;;;20.94;60.65137;963.5219;;;;
2019/06/02 07:36:21;;;;;;;3.9;3.4;;;;;;;21.06;62.22852;963.4344;;;;
2019/06/02 07:38:46;;;;;;;3.7;3.4;;;;;;;21.28;61.6084;963.4299;;;;
2019/06/02 07:41:12;;;;;;;3.9;3.5;;;;;;;21.28;61.69238;963.4156;;;;
2019/06/02 07:43:38;;;;;;;4.9;3.4;;;;;;;21.41;62.21875;963.4506;;;;
2019/06/02 07:46:04;;;;;;;4.9;3.8;;;;;;;21.34;61.89063;963.4294;;;;
2019/06/02 07:48:30;;;;;;;4.7;3.9;;;;;;;21.63;60.10645;963.4016;;;;
2019/06/02 07:50:56;;;;;;;5;4.5;;;;;;;21.52;61.32324;963.408;;;;
2019/06/02 07:53:21;;;;;;;4.1;3.8;;;;;;;21.82;61.625;963.3384;;;;
2019/06/02 07:55:46;;;;;;;4.3;3.7;;;;;;;21.94;60.48145;963.3167;;;;
2019/06/02 07:58:11;;;;;;;3.6;3.3;;;;;;;22.1;59.10547;963.3233;;;;
2019/06/02 08:00:36;;;;;;;4;3.6;;;;;;;22.24;60.60449;963.2941;;;;
2019/06/02 08:03:01;;;;;;;4.7;3.8;;;;;;;22.37;58.85547;963.2932;;;;
2019/06/02 08:05:26;;;;;;;3.6;3.3;;;;;;;22.57;58.52734;963.3105;;;;
2019/06/02 08:07:53;;;;;;;3.9;3.5;;;;;;;22.53;57.0752;963.2642;;;;
2019/06/02 08:10:19;;;;;;;4.1;3.7;;;;;;;22.43;57.5;963.31;;;;
2019/06/02 08:12:47;;;;;;;4.3;3.7;;;;;;;22.84;58.25391;963.192;;;;
2019/06/02 08:15:12;;;;;;;3.1;2.8;;;;;;;22.85;55.91699;963.2734;;;;
2019/06/02 08:17:37;;;;;;;2.7;2.5;;;;;;;22.91;54.64355;963.2605;;;;
2019/06/02 08:20:02;;;;;;;3.3;3;;;;;;;23.27;52.85742;963.2491;;;;
2019/06/02 08:22:30;;;;;;;2.5;2.3;;;;;;;23.3;51.25781;963.1662;;;;
2019/06/02 08:24:59;;;;;;;3.9;2.7;;;;;;;23.36;52.82129;963.2272;;;;
2019/06/02 08:27:24;;;;;;;3.1;2.6;;;;;;;23.53;50.87988;963.101;;;;
2019/06/02 08:29:51;;;;;;;3.4;2.4;;;;;;;23.61;50.86621;963.1142;;;;
2019/06/02 08:32:16;;;;;;;2.7;2.5;;;;;;;23.69;50.73145;963.0505;;;;
2019/06/02 08:34:48;;;;;;;2.8;2.4;;;;;;;23.78;49.60156;963.0795;;;;
2019/06/02 08:37:14;;;;;;;2.4;2.2;;;;;;;24.18;50.53809;963.0883;;;;
2019/06/02 08:39:40;;;;;;;2.4;2.2;;;;;;;23.91;50.70996;963.0162;;;;
2019/06/02 08:42:05;;;;;;;3.1;2.6;;;;;;;24.12;52.93457;962.9839;;;;
2019/06/02 08:44:30;;;;;;;3.3;2.5;;;;;;;24.13;50.69824;963;;;;
2019/06/02 08:46:57;;;;;;;3.5;2.5;;;;;;;24.2;53.58691;962.9891;;;;
2019/06/02 08:49:22;;;;;;;3.1;2.6;;;;;;;24.23;49.4834;962.9934;;;;
2019/06/02 08:51:47;;;;;;;3;2.4;;;;;;;24.51;49.84863;963.0578;;;;
2019/06/02 08:54:12;;;;;;;4.8;2.5;;;;;;;24.59;51.00195;963.0667;;;;
2019/06/02 08:56:37;;;;;;;2.7;2.5;;;;;;;24.91;51.94434;963.038;;;;
2019/06/02 08:59:02;;;;;;;2.6;2.4;;;;;;;24.94;49.68164;963.0292;;;;
2019/06/02 09:01:27;;;;;;;2.6;2.4;;;;;;;25.12;50.23828;963.0014;;;;
2019/06/02 09:03:52;;;;;;;3.7;2.6;;;;;;;25.25;51.39941;962.9846;;;;
2019/06/02 09:06:21;;;;;;;2.7;2.5;;;;;;;25.44;52.0293;963.019;;;;
2019/06/02 09:08:48;;;;;;;2.4;2.2;;;;;;;25.08;47.12207;962.8975;;;;
2019/06/02 09:11:34;;;;;;;3;2;;;;;;;25.18;46.53516;962.8998;;;;
2019/06/02 09:13:59;;;;;;;2.4;2.2;;;;;;;25.01;44.3125;962.8822;;;;
2019/06/02 09:16:24;;;;;;;2.4;2.2;;;;;;;25.12;47.68652;962.8967;;;;
2019/06/02 09:18:50;;;;;;;2.6;2.3;;;;;;;25.55;46.70508;962.9757;;;;
2019/06/02 09:21:19;;;;;;;2.8;2.5;;;;;;;25.74;44.93359;962.8697;;;;
2019/06/02 09:23:44;;;;;;;3.3;2.4;;;;;;;25.44;44.72461;962.8317;;;;
2019/06/02 09:26:09;;;;;;;3.6;2.3;;;;;;;25.77;44.49512;962.7865;;;;
2019/06/02 09:28:35;;;;;;;2.4;2.2;;;;;;;25.86;45.36328;962.8423;;;;
2019/06/02 09:30:59;;;;;;;3.6;2.4;;;;;;;25.7;44.69043;962.7974;;;;
2019/06/02 09:33:34;;;;;;;2.7;2.2;;;;;;;26.08;46.17578;962.8884;;;;
2019/06/02 09:36:08;;;;;;;2.6;2.3;;;;;;;25.9;45.26074;962.8347;;;;
2019/06/02 09:38:34;;;;;;;3;2.5;;;;;;;25.94;45.43164;962.7891;;;;
2019/06/02 09:41:00;;;;;;;2.5;2.3;;;;;;;26.04;43.57813;962.7899;;;;
2019/06/02 09:43:44;;;;;;;2.6;2.4;;;;;;;26.12;45.4375;962.8347;;;;
2019/06/02 09:46:09;;;;;;;2.4;2.2;;;;;;;26.18;41.43848;962.8077;;;;
2019/06/02 09:48:40;;;;;;;2.6;2.4;;;;;;;26.45;44.52637;962.7847;;;;
2019/06/02 09:51:05;;;;;;;3.9;2.6;;;;;;;26.35;43.20117;962.7523;;;;
2019/06/02 09:53:32;;;;;;;2.7;2.5;;;;;;;26.48;44.72168;962.7311;;;;
2019/06/02 09:55:57;;;;;;;2.9;2.2;;;;;;;26.74;45.32129;962.7139;;;;
2019/06/02 09:58:22;;;;;;;2.3;2.1;;;;;;;26.45;42.94629;962.7413;;;;
2019/06/02 10:00:55;;;;;;;2.6;2.4;;;;;;;26.85;45.83594;962.6511;;;;
2019/06/02 10:03:31;;;;;;;2.6;2.1;;;;;;;27.01;39.9707;962.6373;;;;
2019/06/02 10:05:56;;;;;;;2.6;2.2;;;;;;;27.04;41.92578;962.5584;;;;
2019/06/02 10:08:21;;;;;;;3.9;2.6;;;;;;;27.32;41.50879;962.6554;;;;
2019/06/02 10:10:54;;;;;;;2.9;2.2;;;;;;;27.56;41.66211;962.6069;;;;
2019/06/02 10:13:24;;;;;;;4.5;2.1;;;;;;;27.55;40.18652;962.5859;;;;
2019/06/02 10:15:50;;;;;;;2.9;2;;;;;;;27.59;39.53027;962.5609;;;;
2019/06/02 10:18:32;;;;;;;2.4;1.9;;;;;;;27.58;39.67285;962.616;;;;
2019/06/02 10:20:58;;;;;;;3;2.7;;;;;;;27.1;40.91211;962.5406;;;;
2019/06/02 10:23:23;;;;;;;2.2;2;;;;;;;27.34;39.18457;962.5778;;;;
2019/06/02 10:25:48;;;;;;;2.1;1.8;;;;;;;27.95;40.3418;962.5349;;;;
2019/06/02 10:28:13;;;;;;;3.5;2.3;;;;;;;28.03;41.76563;962.5427;;;;
2019/06/02 10:30:38;;;;;;;2.4;2;;;;;;;27.81;38.34961;962.4981;;;;
2019/06/02 10:33:04;;;;;;;2.3;2.1;;;;;;;28.26;36.1416;962.5475;;;;
2019/06/02 10:35:29;;;;;;;2.1;1.9;;;;;;;28.9;35.85645;962.5888;;;;
2019/06/02 10:38:03;;;;;;;2.1;1.9;;;;;;;28.86;34.97559;962.56;;;;
2019/06/02 10:40:34;;;;;;;4.4;1.8;;;;;;;28.04;38.35742;962.4978;;;;
2019/06/02 10:43:06;;;;;;;2.5;2;;;;;;;28.47;37.5166;962.4841;;;;
2019/06/02 10:45:31;;;;;;;2.3;2.1;;;;;;;28.31;37.27539;962.463;;;;
2019/06/02 10:47:58;;;;;;;2.3;2.1;;;;;;;28.58;41.49316;962.5125;;;;
2019/06/02 10:50:23;;;;;;;3;2.1;;;;;;;28.47;36.51953;962.4933;;;;
2019/06/02 10:52:48;;;;;;;2.2;2;;;;;;;29.02;38.17578;962.5148;;;;
2019/06/02 10:55:13;;;;;;;2.3;1.9;;;;;;;29.03;36.06055;962.4724;;;;
2019/06/02 10:57:39;;;;;;;2.5;2.3;;;;;;;28.82;37.55859;962.4615;;;;
2019/06/02 11:00:07;;;;;;;3.2;2.1;;;;;;;28.82;36.31934;962.4182;;;;
2019/06/02 11:02:32;;;;;;;3.2;2;;;;;;;28.52;36.57129;962.4575;;;;
2019/06/02 11:04:57;;;;;;;2.5;1.9;;;;;;;29.22;34.16016;962.3608;;;;
2019/06/02 11:07:23;;;;;;;3.2;2.2;;;;;;;28.61;39.21191;962.3096;;;;
2019/06/02 11:09:48;;;;;;;2.4;2.1;;;;;;;28.94;35.18555;962.2566;;;;
2019/06/02 11:12:13;;;;;;;2;1.9;;;;;;;29.64;34.79492;962.2023;;;;
2019/06/02 11:14:38;;;;;;;2.3;2.1;;;;;;;29.83;35.82129;962.2559;;;;
2019/06/02 11:17:03;;;;;;;3.2;2.2;;;;;;;29.78;35.23926;962.1891;;;;
2019/06/02 11:19:30;;;;;;;2.9;2.7;;;;;;;29.12;38.24414;962.2333;;;;
2019/06/02 11:22:11;;;;;;;2;1.9;;;;;;;29.92;30.1875;962.2207;;;;
2019/06/02 11:24:37;;;;;;;4.3;1.9;;;;;;;29.16;32.00195;962.1739;;;;
2019/06/02 11:27:03;;;;;;;2.3;2.1;;;;;;;29.36;34.44727;962.1516;;;;
2019/06/02 11:29:28;;;;;;;2.7;2;;;;;;;30.33;36.30762;962.1378;;;;
2019/06/02 11:31:56;;;;;;;2.5;2.3;;;;;;;30.46;32.52832;962.1495;;;;
2019/06/02 11:34:25;;;;;;;3;2.3;;;;;;;30.25;35.08301;962.1571;;;;
2019/06/02 11:37:03;;;;;;;2.5;2.3;;;;;;;30.39;35.66113;962.1846;;;;
2019/06/02 11:39:29;;;;;;;2.6;2.4;;;;;;;30.64;32.49316;962.0588;;;;
2019/06/02 11:41:54;;;;;;;2.5;2.3;;;;;;;31.32;35.06934;962.002;;;;
2019/06/02 11:44:20;;;;;;;3;2.3;;;;;;;30.92;33.28613;962.0514;;;;
2019/06/02 11:46:45;;;;;;;3.3;2.1;;;;;;;30.54;34.85156;961.9938;;;;
2019/06/02 11:49:26;;;;;;;3.5;2.5;;;;;;;30.72;31.3877;962.0261;;;;
2019/06/02 11:52:00;;;;;;;3.5;2.6;;;;;;;30.22;32.16113;962.0385;;;;
2019/06/02 11:54:35;;;;;;;2.6;2.4;;;;;;;30.45;33.08301;961.9976;;;;
2019/06/02 11:57:10;;;;;;;3.5;2.3;;;;;;;30.96;31.95996;961.9292;;;;
2019/06/02 11:59:35;;;;;;;3.4;2.2;;;;;;;31.43;32.93652;961.9684;;;;
2019/06/02 12:02:00;;;;;;;2.4;2.2;;;;;;;30.62;30.72852;961.8119;;;;
2019/06/02 12:04:25;;;;;;;4.9;2.1;;;;;;;31.37;32.47363;961.8292;;;;
2019/06/02 12:06:50;;;;;;;3;2.3;;;;;;;32.55;29.68359;961.782;;;;
2019/06/02 12:09:15;;;;;;;2.5;2.3;;;;;;;32.3;28.3457;961.7773;;;;
2019/06/02 12:11:41;;;;;;;2.4;2.2;;;;;;;32.72;32.64258;961.8008;;;;
2019/06/02 12:14:06;;;;;;;2.7;2.4;;;;;;;31.8;30.3125;961.7098;;;;
2019/06/02 12:16:31;;;;;;;4.1;2.4;;;;;;;32.06;32.37695;961.6323;;;;
2019/06/02 12:19:08;;;;;;;2.3;2.1;;;;;;;33.23;29.72852;961.6395;;;;
2019/06/02 12:21:33;;;;;;;2.2;2;;;;;;;32.76;30.55859;961.6792;;;;
2019/06/02 12:23:58;;;;;;;3.3;2.1;;;;;;;31.85;29.10547;961.6375;;;;
2019/06/02 12:26:23;;;;;;;2.3;2.1;;;;;;;31.83;32.53027;961.6417;;;;
2019/06/02 12:28:48;;;;;;;2.9;1.9;;;;;;;31.19;31.50488;961.5594;;;;
2019/06/02 12:31:15;;;;;;;2;1.9;;;;;;;32.91;30.82324;961.5659;;;;
2019/06/02 12:33:44;;;;;;;2.3;2.1;;;;;;;32.58;29.04297;961.5902;;;;
2019/06/02 12:36:10;;;;;;;2.8;2.1;;;;;;;32.81;27.15332;961.5854;;;;
2019/06/02 12:38:35;;;;;;;2.2;2;;;;;;;32.88;26.68359;961.5095;;;;
2019/06/02 12:41:07;;;;;;;2;1.9;;;;;;;32.16;27.92578;961.5165;;;;
2019/06/02 12:43:32;;;;;;;2.2;1.8;;;;;;;32.78;26.22949;961.497;;;;
2019/06/02 12:46:13;;;;;;;2.4;2;;;;;;;32.95;24.1875;961.4698;;;;
2019/06/02 12:48:38;;;;;;;2.1;1.9;;;;;;;32.77;27.5625;961.4073;;;;
2019/06/02 12:51:03;;;;;;;1.9;1.7;;;;;;;33.11;27.58398;961.4327;;;;
2019/06/02 12:53:38;;;;;;;1.8;1.7;;;;;;;33;26.82422;961.425;;;;
2019/06/02 12:56:06;;;;;;;1.9;1.8;;;;;;;33.16;25.94727;961.3973;;;;
2019/06/02 12:58:37;;;;;;;2;1.8;;;;;;;33;27.16406;961.3173;;;;
2019/06/02 13:01:18;;;;;;;2.1;1.9;;;;;;;33.13;26.22461;961.3541;;;;
2019/06/02 13:03:45;;;;;;;2.2;2;;;;;;;32.8;27.03125;961.299;;;;
2019/06/02 13:06:14;;;;;;;2.4;1.9;;;;;;;33.3;27.31543;961.3475;;;;
2019/06/02 13:08:39;;;;;;;2.3;1.8;;;;;;;33.14;25.87305;961.2823;;;;
2019/06/02 13:11:04;;;;;;;2.1;1.9;;;;;;;33.42;23.72656;961.2301;;;;
2019/06/02 13:13:29;;;;;;;1.7;1.6;;;;;;;34.16;25.76074;961.2868;;;;
2019/06/02 13:15:54;;;;;;;2.6;1.8;;;;;;;34.6;23.3252;961.1854;;;;
2019/06/02 13:18:19;;;;;;;1.8;1.7;;;;;;;33.04;24.38672;961.1522;;;;
2019/06/02 13:20:45;;;;;;;2.1;1.7;;;;;;;34.19;22.65918;961.1744;;;;
2019/06/02 13:23:10;;;;;;;2.3;2.1;;;;;;;33.68;25.10156;961.1442;;;;
2019/06/02 13:25:53;;;;;;;2.1;1.9;;;;;;;33.44;23.80078;961.0988;;;;
2019/06/02 13:28:18;;;;;;;2.1;1.9;;;;;;;32.91;26.10254;961.0356;;;;
2019/06/02 13:30:43;;;;;;;2;1.9;;;;;;;33.09;25.34863;961.1018;;;;
2019/06/02 13:33:08;;;;;;;2.2;2;;;;;;;32.78;28.55859;961.0027;;;;
2019/06/02 13:35:33;;;;;;;2;1.8;;;;;;;33.8;26.08105;961.0323;;;;
2019/06/02 13:37:58;;;;;;;2.1;1.9;;;;;;;33.04;25.90332;960.9533;;;;
2019/06/02 13:40:27;;;;;;;2.1;1.9;;;;;;;31.3;28.03027;960.9617;;;;
2019/06/02 13:43:10;;;;;;;3;1.8;;;;;;;32.48;29.14551;960.9113;;;;
2019/06/02 13:45:35;;;;;;;2.9;1.9;;;;;;;32.21;27.98926;960.8664;;;;
2019/06/02 13:48:07;;;;;;;3.2;2;;;;;;;32.82;27.84473;960.8547;;;;
2019/06/02 13:50:33;;;;;;;1.8;1.7;;;;;;;32.22;23.62793;960.8158;;;;
2019/06/02 13:53:06;;;;;;;1.9;1.8;;;;;;;32.86;23.66113;960.8286;;;;
2019/06/02 13:55:31;;;;;;;2.5;1.8;;;;;;;33.31;24.36426;960.8113;;;;
2019/06/02 13:58:17;;;;;;;2.7;2;;;;;;;33.05;24.89746;960.7872;;;;
2019/06/02 14:00:42;;;;;;;2.2;1.9;;;;;;;34.1;23.62891;960.6788;;;;
2019/06/02 14:03:08;;;;;;;2.2;1.9;;;;;;;34.06;25.14746;960.6465;;;;
2019/06/02 14:05:33;;;;;;;2.4;1.8;;;;;;;33.88;26.1709;960.7537;;;;
2019/06/02 14:08:00;;;;;;;2.4;2;;;;;;;33.16;25.92285;960.6186;;;;
2019/06/02 14:10:25;;;;;;;3.6;1.8;;;;;;;31.64;28.77734;960.5571;;;;
2019/06/02 14:12:51;;;;;;;2.5;1.9;;;;;;;33.2;25.99805;960.5444;;;;
2019/06/02 14:15:16;;;;;;;2.1;1.9;;;;;;;32.91;26.55176;960.6245;;;;
2019/06/02 14:17:43;;;;;;;1.8;1.7;;;;;;;33.67;23.41113;960.5882;;;;
2019/06/02 14:20:08;;;;;;;2.6;2;;;;;;;33.47;24.85938;960.615;;;;
2019/06/02 14:22:33;;;;;;;2.2;1.9;;;;;;;33.96;26.2002;960.5739;;;;
2019/06/02 14:25:08;;;;;;;2.1;1.9;;;;;;;33.63;26.19336;960.5748;;;;